Time;durP1;ratioP1;P1;durP2;ratioP2;P2;SDS_P1;SDS_P2;PMS_P1;PMS_P2;Temp;Humidity;BMP_temperature;BMP_pressure;BME280_temperature;BME280_humidity;BME280_pressure;Samples;Min_cycle;Max_cycle;Signal;HPM_P1;HPM_P2
2023/04/14 00:06:04;;;;;;;68.20;44.80;;;;;;;8.43;100.00;98073.95;270110;1267;22603;-88
2023/04/14 00:13:04;;;;;;;73.50;45.80;;;;;;;8.40;100.00;98077.59;270339;1269;22423;-87
2023/04/14 00:20:13;;;;;;;68.90;44.90;;;;;;;8.36;100.00;98068.92;269829;1269;22524;-87
2023/04/14 00:33:07;;;;;;;64.60;42.10;;;;;;;8.27;100.00;98064.59;270003;1270;22250;-87
2023/04/14 00:39:38;;;;;;;67.90;42.50;;;;;;;8.22;100.00;98057.45;270108;1267;22634;-89
2023/04/14 00:45:58;;;;;;;78.90;46.70;;;;;;;8.19;100.00;98054.85;269603;1267;27622;-86
2023/04/14 00:52:04;;;;;;;78.40;46.80;;;;;;;8.12;100.00;98051.92;272522;1267;22583;-88
2023/04/14 00:59:01;;;;;;;78.10;47.90;;;;;;;8.08;100.00;98037.81;269871;1267;22696;-87
2023/04/14 01:05:50;;;;;;;76.50;44.10;;;;;;;8.01;100.00;98037.08;271006;1262;23071;-88
2023/04/14 01:12:54;;;;;;;74.00;46.30;;;;;;;7.97;100.00;98043.60;270290;1268;25336;-89
2023/04/14 01:19:25;;;;;;;77.00;47.30;;;;;;;7.95;100.00;98032.83;270313;1272;24265;-87
2023/04/14 01:26:16;;;;;;;66.20;40.90;;;;;;;7.93;100.00;98029.40;270184;1267;23281;-87
2023/04/14 01:33:00;;;;;;;67.10;40.60;;;;;;;7.91;100.00;98027.90;270123;1267;25517;-89
2023/04/14 01:39:37;;;;;;;64.40;39.60;;;;;;;7.88;100.00;98027.66;271132;1268;22556;-87
2023/04/14 01:46:54;;;;;;;74.30;43.90;;;;;;;7.85;100.00;98024.83;272472;1269;22551;-88
2023/04/14 01:53:06;;;;;;;73.90;43.90;;;;;;;7.76;100.00;98016.21;269863;1274;22518;-89
2023/04/14 01:59:26;;;;;;;64.90;37.80;;;;;;;7.75;100.00;98012.63;269983;1268;24367;-89
2023/04/14 02:05:46;;;;;;;57.40;36.70;;;;;;;7.78;100.00;98010.55;271717;1268;23072;-88
2023/04/14 02:12:06;;;;;;;69.30;42.10;;;;;;;7.78;100.00;97998.02;273592;1268;22151;-88
2023/04/14 02:18:26;;;;;;;69.90;42.20;;;;;;;7.72;100.00;97986.77;273834;1269;22848;-91
2023/04/14 02:24:57;;;;;;;68.80;43.80;;;;;;;7.71;100.00;97985.43;272925;1254;22602;-87
2023/04/14 02:31:07;;;;;;;75.40;44.60;;;;;;;7.65;100.00;97980.73;273243;1260;22304;-87
2023/04/14 02:37:35;;;;;;;76.30;47.90;;;;;;;7.56;100.00;97976.30;273790;1267;22314;-88
2023/04/14 02:44:21;;;;;;;67.20;43.30;;;;;;;7.43;100.00;97963.08;273891;1267;22323;-88
2023/04/14 02:50:32;;;;;;;77.00;45.00;;;;;;;7.30;100.00;97962.98;272352;1267;23866;-87
2023/04/14 02:57:40;;;;;;;78.90;44.90;;;;;;;7.18;100.00;97958.61;269790;1267;22517;-87
2023/04/14 03:03:52;;;;;;;75.80;45.10;;;;;;;7.02;100.00;97952.80;271663;1267;22239;-87
2023/04/14 03:10:22;;;;;;;61.50;39.00;;;;;;;6.85;100.00;97949.85;273789;1260;22191;-89
2023/04/14 03:16:35;;;;;;;66.60;39.00;;;;;;;6.80;100.00;97948.10;273789;1267;22372;-88
2023/04/14 03:22:39;;;;;;;69.70;40.80;;;;;;;6.86;100.00;97942.39;273904;1267;22491;-87
2023/04/14 03:29:07;;;;;;;67.80;40.50;;;;;;;6.91;100.00;97937.85;272628;1266;23084;-87
2023/04/14 03:35:21;;;;;;;76.10;44.20;;;;;;;6.94;100.00;97934.46;273289;1261;23423;-88
2023/04/14 03:42:31;;;;;;;69.30;41.00;;;;;;;6.98;100.00;97926.50;270591;1270;22334;-87
2023/04/14 03:48:54;;;;;;;76.30;44.40;;;;;;;7.05;100.00;97926.94;270067;1261;23291;-88
2023/04/14 03:55:45;;;;;;;72.30;42.10;;;;;;;7.10;100.00;97925.27;270363;1270;22333;-88
2023/04/14 04:02:41;;;;;;;73.90;41.50;;;;;;;7.15;100.00;97924.61;270787;1269;22577;-87
2023/04/14 04:08:52;;;;;;;65.40;37.50;;;;;;;7.21;100.00;97925.98;269545;1269;22612;-88
2023/04/14 04:14:55;;;;;;;64.80;38.50;;;;;;;7.29;100.00;97932.88;270174;1267;22511;-86
2023/04/14 04:21:00;;;;;;;61.80;35.90;;;;;;;7.39;100.00;97931.06;271797;1266;23031;-88
2023/04/14 04:27:57;;;;;;;64.30;37.20;;;;;;;7.48;100.00;97937.52;273340;1267;22547;-89
2023/04/14 04:36:28;;;;;;;;;;;;;;;;;;;;;
2023/04/14 04:44:06;;;;;;;;;;;;;;;;;;;;;
2023/04/14 04:51:01;;;;;;;63.80;35.70;;;;;;;7.79;100.00;97931.70;271289;1269;22310;-87
2023/04/14 04:57:12;;;;;;;56.60;36.10;;;;;;;7.90;100.00;97926.77;272228;1267;22325;-86
2023/04/14 05:03:25;;;;;;;50.80;31.80;;;;;;;8.01;100.00;97918.88;273226;1268;22254;-88
2023/04/14 05:09:32;;;;;;;50.80;31.60;;;;;;;8.12;100.00;97913.38;273517;1252;22652;-86
2023/04/14 05:15:51;;;;;;;56.50;32.50;;;;;;;8.27;100.00;97913.14;273076;1268;22273;-86
2023/04/14 05:21:54;;;;;;;54.50;32.40;;;;;;;8.47;100.00;97900.11;270462;1268;23043;-87
2023/04/14 05:27:58;;;;;;;53.60;31.80;;;;;;;8.64;100.00;97884.00;271061;1268;22211;-87
2023/04/14 05:34:00;;;;;;;50.90;31.50;;;;;;;8.80;100.00;97869.27;271491;1267;22450;-86
2023/04/14 05:40:05;;;;;;;47.90;29.50;;;;;;;9.00;100.00;97859.75;273051;1257;120118;-86
2023/04/14 05:46:27;;;;;;;47.10;29.50;;;;;;;9.26;100.00;97847.23;271857;1268;23447;-88
2023/04/14 05:52:29;;;;;;;49.50;29.30;;;;;;;9.51;100.00;97839.14;271509;1267;22605;-87
2023/04/14 05:58:32;;;;;;;42.70;27.50;;;;;;;9.78;100.00;97835.28;271738;1267;23377;-87
2023/04/14 06:04:34;;;;;;;43.50;27.30;;;;;;;10.02;100.00;97831.52;270534;1266;22554;-87
2023/04/14 06:10:50;;;;;;;45.40;26.20;;;;;;;10.36;100.00;97837.97;272990;1267;22626;-89
2023/04/14 06:16:58;;;;;;;38.00;24.40;;;;;;;10.58;100.00;97846.65;273698;1268;22216;-88
2023/04/14 06:23:53;;;;;;;44.10;25.70;;;;;;;10.76;100.00;97852.94;273916;1270;22194;-90
2023/04/14 06:30:43;;;;;;;41.10;24.10;;;;;;;10.98;100.00;97852.52;273913;1267;22400;-87
2023/04/14 06:37:31;;;;;;;38.10;23.50;;;;;;;11.08;100.00;97843.51;273987;1268;22317;-85
2023/04/14 06:45:07;;;;;;;39.40;22.30;;;;;;;11.25;100.00;97832.69;273974;1261;22225;-89
2023/04/14 06:52:14;;;;;;;32.90;21.20;;;;;;;11.43;100.00;97820.84;273771;1266;23218;-87
2023/04/14 06:58:56;;;;;;;;;;;;;;;;;;;;;
2023/04/14 07:07:00;;;;;;;;;;;;;;;;;;;;;
2023/04/14 07:14:00;;;;;;;30.80;20.50;;;;;;;11.37;100.00;97794.28;272679;1271;23699;-85
2023/04/14 07:43:42;;;;;;;20.40;12.70;;;;;;;12.53;96.05;97792.02;272145;1269;22189;-89
2023/04/14 07:50:36;;;;;;;18.80;11.20;;;;;;;13.14;94.11;97787.40;272005;1271;22276;-89
2023/04/14 07:56:53;;;;;;;21.00;12.80;;;;;;;13.40;90.68;97789.37;271850;1271;22230;-87
2023/04/14 08:03:00;;;;;;;16.20;10.70;;;;;;;13.63;89.12;97771.07;271980;1270;25796;-87
2023/04/14 08:10:40;;;;;;;16.40;11.00;;;;;;;13.79;86.23;97767.83;270490;1274;22531;-86
2023/04/14 08:17:08;;;;;;;;;;;;;;;13.80;84.68;97768.35;270811;1274;22545;-89
2023/04/14 08:55:42;;;;;;;10.90;7.60;;;;;;;13.86;78.30;97754.88;273615;1270;22623;-87
2023/04/14 09:03:51;;;;;;;;;;;;;;;;;;;;;
2023/04/14 09:34:23;;;;;;;12.10;5.70;;;;;;;14.53;75.51;97729.06;270352;1280;22199;-87
2023/04/14 09:41:15;;;;;;;6.60;4.40;;;;;;;14.57;75.10;97721.63;270115;1273;23709;-87
2023/04/14 09:49:05;;;;;;;4.90;3.20;;;;;;;14.58;74.28;97720.02;270075;1287;23455;-87
2023/04/14 09:55:54;;;;;;;9.80;3.90;;;;;;;14.55;73.52;97705.80;270767;1283;22576;-87
2023/04/14 10:11:31;;;;;;;6.30;3.20;;;;;;;14.74;71.94;97683.80;273449;1252;22197;-89
2023/04/14 10:18:43;;;;;;;;;;;;;;;15.06;70.65;97671.36;273754;1268;22576;-90
2023/04/14 10:25:35;;;;;;;5.80;3.00;;;;;;;15.15;69.45;97670.87;273274;1269;22567;-89
2023/04/14 10:33:10;;;;;;;4.00;3.10;;;;;;;15.22;66.55;97665.48;273569;1270;22333;-90
2023/04/14 10:39:56;;;;;;;7.10;3.10;;;;;;;15.21;66.12;97657.95;273534;1268;23331;-89
2023/04/14 10:47:46;;;;;;;3.80;3.00;;;;;;;15.23;65.05;97651.98;272220;1268;22612;-88
2023/04/14 11:03:35;;;;;;;4.40;3.10;;;;;;;15.40;60.63;97642.77;268816;1277;23305;-88
2023/04/14 11:10:08;;;;;;;5.40;3.40;;;;;;;15.68;60.54;97637.75;270280;1283;22261;-86
2023/04/14 11:17:22;;;;;;;3.90;3.00;;;;;;;16.02;58.87;97634.86;271193;1284;23388;-89
2023/04/14 11:23:53;;;;;;;4.80;2.70;;;;;;;16.24;57.58;97635.95;271773;1273;22576;-89
2023/04/14 11:30:41;;;;;;;4.00;2.80;;;;;;;16.27;56.18;97630.59;270248;1269;22260;-87
2023/04/14 11:37:29;;;;;;;5.30;2.90;;;;;;;16.22;56.49;97614.83;270985;1269;22535;-88
2023/04/14 11:45:16;;;;;;;4.60;2.80;;;;;;;16.12;54.79;97616.40;272622;1275;22222;-88
2023/04/14 11:52:49;;;;;;;6.40;3.20;;;;;;;16.16;54.55;97611.20;273356;1269;23211;-88
2023/04/14 12:08:11;;;;;;;4.90;3.30;;;;;;;16.51;53.67;97606.20;269630;1275;23173;-88
2023/04/14 12:15:05;;;;;;;4.30;3.20;;;;;;;16.64;53.85;97597.29;268939;1274;22517;-87
2023/04/14 12:22:17;;;;;;;3.90;2.90;;;;;;;16.67;52.89;97584.48;269769;1269;22504;-88
2023/04/14 12:37:27;;;;;;;8.10;2.80;;;;;;;16.53;49.57;97568.08;270059;1274;23711;-88
2023/04/14 12:44:32;;;;;;;4.80;3.40;;;;;;;16.53;49.68;97552.76;270583;1281;23584;-89
2023/04/14 12:51:13;;;;;;;5.10;3.00;;;;;;;16.60;49.60;97547.23;271854;1278;22219;-86
2023/04/14 12:57:53;;;;;;;5.50;2.90;;;;;;;16.83;49.48;97535.17;273882;1270;23176;-86
2023/04/14 13:04:21;;;;;;;3.00;2.60;;;;;;;17.11;49.58;97524.73;273099;1269;22556;-88
2023/04/14 13:10:48;;;;;;;5.70;3.00;;;;;;;17.31;49.20;97506.34;273892;1259;23237;-88
2023/04/14 13:17:34;;;;;;;3.60;3.00;;;;;;;17.36;49.21;97504.15;270582;1263;22538;-87
2023/04/14 13:25:32;;;;;;;4.10;3.20;;;;;;;17.22;49.35;97504.22;270448;1275;22935;-86
2023/04/14 13:31:42;;;;;;;4.00;3.20;;;;;;;17.02;49.07;97502.48;273133;1269;22412;-87
2023/04/14 13:38:14;;;;;;;4.00;3.40;;;;;;;16.83;49.12;97502.08;273576;1269;22217;-88
2023/04/14 13:52:45;;;;;;;6.10;3.30;;;;;;;16.61;49.43;97495.64;271879;1275;22710;-89
2023/04/14 13:59:14;;;;;;;;;;;;;;;16.61;49.61;97491.41;272955;1267;22433;-90
2023/04/14 14:06:43;;;;;;;7.40;3.40;;;;;;;16.64;49.37;97490.17;270985;1276;22527;-86
2023/04/14 14:22:25;;;;;;;5.00;3.30;;;;;;;16.51;49.34;97488.66;270332;1272;22199;-87
2023/04/14 14:30:09;;;;;;;6.10;3.20;;;;;;;16.45;49.53;97487.77;271414;1273;22607;-87
2023/04/14 14:38:03;;;;;;;7.00;3.00;;;;;;;16.38;49.42;97492.30;269176;1281;22255;-85
2023/04/14 14:53:10;;;;;;;5.00;3.30;;;;;;;16.21;49.48;97492.02;271865;1272;22658;-88
2023/04/14 15:00:36;;;;;;;4.80;3.40;;;;;;;16.12;49.26;97491.54;269932;1272;22683;-90
2023/04/14 15:15:46;;;;;;;8.90;3.00;;;;;;;15.93;49.38;97495.20;269720;1272;24225;-88
2023/04/14 15:29:36;;;;;;;5.50;3.70;;;;;;;15.83;49.47;97510.30;269803;1274;23518;-88
2023/04/14 15:52:11;;;;;;;7.80;4.30;;;;;;;15.43;50.43;97524.96;272795;1271;22833;-88
2023/04/14 15:59:15;;;;;;;5.30;4.00;;;;;;;15.12;51.33;97524.20;269762;1272;22622;-89
2023/04/14 16:06:07;;;;;;;8.00;5.00;;;;;;;14.93;51.95;97519.40;270538;1272;22325;-89
2023/04/14 16:12:13;;;;;;;6.30;4.40;;;;;;;14.80;52.81;97514.91;271601;1267;25550;-88
2023/04/14 16:18:44;;;;;;;8.00;5.50;;;;;;;14.59;53.88;97511.88;270645;1258;22646;-87
2023/04/14 16:26:31;;;;;;;9.70;5.50;;;;;;;14.34;54.97;97512.05;271446;1269;22439;-88
2023/04/14 16:32:57;;;;;;;8.10;4.70;;;;;;;14.09;56.18;97514.19;272229;1267;22321;-90
2023/04/14 16:39:26;;;;;;;11.80;5.20;;;;;;;13.88;57.57;97513.39;271150;1267;22206;-89
2023/04/14 17:01:13;;;;;;;10.60;5.60;;;;;;;13.35;60.71;97509.60;272598;1271;23270;-89
2023/04/14 17:07:39;;;;;;;9.90;6.00;;;;;;;13.19;62.10;97508.63;270907;1270;22564;-87
2023/04/14 17:14:22;;;;;;;12.10;7.50;;;;;;;12.97;63.50;97514.13;272809;1269;22042;-88
2023/04/14 17:20:58;;;;;;;8.50;6.20;;;;;;;12.81;64.68;97518.63;271333;1276;22547;-88
2023/04/14 17:35:23;;;;;;;10.20;6.70;;;;;;;12.55;66.63;97526.52;269332;1273;22563;-88
2023/04/14 17:41:48;;;;;;;11.10;7.40;;;;;;;12.52;66.97;97537.33;269928;1270;22379;-89
2023/04/14 17:48:50;;;;;;;11.80;7.70;;;;;;;12.53;66.96;97549.77;270971;1267;23827;-88
2023/04/14 17:57:04;;;;;;;12.70;7.90;;;;;;;12.62;66.81;97551.94;271222;1268;23298;-89
2023/04/14 18:36:19;;;;;;;8.40;4.50;;;;;;;13.00;68.33;97551.19;271531;1273;22553;-90
2023/04/14 18:44:20;;;;;;;6.80;4.50;;;;;;;12.87;68.73;97552.23;270427;1279;22554;-90
2023/04/14 19:07:28;;;;;;;7.20;4.60;;;;;;;12.65;71.37;97563.58;270825;1260;22576;-90
2023/04/14 19:14:26;;;;;;;7.90;4.90;;;;;;;12.59;72.29;97560.64;271607;1273;22656;-88
2023/04/14 19:22:02;;;;;;;6.90;5.20;;;;;;;12.49;72.77;97551.27;272052;1273;22343;-89
2023/04/14 19:28:57;;;;;;;5.50;3.80;;;;;;;12.37;73.44;97551.27;272786;1276;23577;-89
2023/04/14 19:35:43;;;;;;;4.30;2.80;;;;;;;12.32;74.49;97550.66;272944;1270;22243;-89
2023/04/14 19:42:40;;;;;;;6.80;3.60;;;;;;;12.26;75.03;97556.98;272385;1273;22308;-90
2023/04/14 19:50:28;;;;;;;5.40;2.80;;;;;;;12.17;75.47;97556.03;271766;1273;22316;-89
2023/04/14 19:57:40;;;;;;;5.40;3.40;;;;;;;12.09;75.78;97560.95;268880;1273;22569;-89
2023/04/14 20:04:09;;;;;;;4.90;3.00;;;;;;;12.00;76.03;97560.09;270932;1273;23431;-88
2023/04/14 20:11:29;;;;;;;;;;;;;;;;;;;;;
2023/04/14 20:18:51;;;;;;;;;;;;;;;11.84;76.98;97564.29;271654;1267;22541;-89
2023/04/14 20:26:14;;;;;;;5.60;4.00;;;;;;;11.75;77.40;97569.22;264476;1257;10001347;-90
2023/04/14 20:33:12;;;;;;;7.90;4.40;;;;;;;11.71;78.01;97571.09;274010;1267;22333;-87
2023/04/14 20:49:10;;;;;;;6.50;4.10;;;;;;;11.64;79.05;97577.15;270547;1277;22380;-88
2023/04/14 20:56:29;;;;;;;6.40;4.50;;;;;;;11.62;79.31;97580.46;270313;1268;22562;-89
2023/04/14 21:10:49;;;;;;;6.50;4.00;;;;;;;11.61;80.38;97618.45;270732;1268;25197;-88
2023/04/14 21:17:52;;;;;;;9.10;4.00;;;;;;;11.60;80.44;97632.86;270662;1268;22489;-87
2023/04/14 21:25:26;;;;;;;7.90;4.50;;;;;;;11.55;80.61;97630.59;270033;1268;23910;-89
2023/04/14 21:33:12;;;;;;;7.10;4.20;;;;;;;11.45;80.89;97633.70;270613;1269;22958;-90
2023/04/14 21:40:42;;;;;;;7.20;3.40;;;;;;;11.34;81.30;97638.47;269735;1270;22591;-89
2023/04/14 21:46:54;;;;;;;8.00;3.80;;;;;;;11.16;81.79;97639.26;269758;1269;22607;-88
2023/04/14 22:09:10;;;;;;;6.50;3.50;;;;;;;10.88;82.41;97659.85;270005;1267;23414;-88
2023/04/14 22:16:57;;;;;;;6.20;3.90;;;;;;;10.90;82.31;97656.79;269534;1273;22549;-88
2023/04/14 22:24:16;;;;;;;6.00;3.40;;;;;;;10.88;82.23;97659.08;269828;1267;22596;-85
2023/04/14 22:31:08;;;;;;;6.40;3.40;;;;;;;10.83;82.27;97663.20;270328;1267;22759;-89
2023/04/14 22:38:29;;;;;;;5.90;3.90;;;;;;;10.78;82.30;97672.88;270991;1267;24274;-89
2023/04/14 22:46:21;;;;;;;7.60;3.90;;;;;;;10.73;82.46;97677.08;272003;1267;22548;-90
2023/04/14 22:53:58;;;;;;;5.40;2.70;;;;;;;10.64;82.36;97688.27;270564;1266;23309;-89
2023/04/14 23:09:04;;;;;;;3.20;2.70;;;;;;;10.31;82.52;97688.50;271229;1267;25426;-89
2023/04/14 23:15:47;;;;;;;6.80;3.00;;;;;;;10.16;82.54;97701.77;270493;1266;22583;-90
2023/04/14 23:23:28;;;;;;;3.30;2.40;;;;;;;10.06;82.28;97706.35;269897;1268;23653;-90
2023/04/14 23:30:40;;;;;;;3.60;2.20;;;;;;;9.98;82.03;97701.78;273248;1274;22218;-90
2023/04/14 23:38:35;;;;;;;2.80;2.30;;;;;;;9.89;81.91;97708.57;273928;1267;22933;-88
2023/04/14 23:46:01;;;;;;;5.60;2.60;;;;;;;9.74;81.76;97698.05;271972;1270;23635;-89
2023/04/14 23:53:20;;;;;;;4.60;2.40;;;;;;;9.60;82.04;97716.94;271429;1271;22236;-89
